CYTZ/YTZ METAR and TAF weather

Enter ICAO airport designator
Station Type Date Time Source
CYTZ METAR 2019/08/22 15:00 UTC NOAA

CYTZ 221500Z AUTO 28011G16KT 9SM CLR 21/10 A2994 RMK SLP140 DENSITY ALT 1000FT


Station Type Date Time Source
CYTZ Decoded METAR 2019/08/22 15:00 UTC NOAA

Station name not available
Aug 22, 2019 - 11:00 AM EDT / 2019.08.22 1500 UTC
Wind: from the W (280 degrees) at 13 MPH (11 KT) gusting to 18 MPH (16 KT):0
Visibility: 9 mile(s):0
Sky conditions: clear
Temperature: 69 F (21 C)
Dew Point: 50 F (10 C)
Relative Humidity: 49%
Pressure (altimeter): 29.94 in. Hg (1013 hPa)
ob: CYTZ 221500Z AUTO 28011G16KT 9SM CLR 21/10 A2994 RMK SLP140 DENSITY ALT 1000FT
cycle: 15

Station Type Date Time Source
CYTZ TAF 2019/08/22 14:42 UTC NOAA

TAF CYTZ 221338Z 2214/2314 30008KT P6SM FEW050 FEW160 BKN200
FM221800 27010KT P6SM FEW050 SCT220
FM230000 34010KT P6SM FEW050
RMK FCST BASED ON AUTO OBS. NXT FCST BY 222000Z

Example: see airport list